< Typhoon 196121 1961 Season Typhoon 196123 >
Typhoon 196122 (SALLY)
General InformationTrack Information on Google Maps || Disaster Info.ResourceGoogle EarthGE AnimationAtom FeedGeoJSON
Detalied Best Track (Time Zone = UTC)
Year Month Day Hour Lat. Long. Pressure (hPa) Wind (kt) Class Image Chart
1961 9 23 00 15.0 145.0 1006 0 2 -- Chart
1961 9 23 06 15.2 144.4 1004 0 2 -- Chart
1961 9 23 12 15.3 143.6 1004 0 2 -- Chart
1961 9 23 18 15.7 142.8 1004 0 2 -- Chart
1961 9 24 00 16.0 142.0 1002 0 2 -- Chart
1961 9 24 06 16.4 140.8 1000 0 2 -- Chart
1961 9 24 12 16.7 139.4 998 0 2 -- Chart
1961 9 24 18 17.0 138.0 998 0 2 -- Chart
1961 9 25 00 17.5 136.5 998 0 2 -- Chart
1961 9 25 06 18.0 135.0 998 0 2 -- Chart
1961 9 25 12 18.6 133.9 998 0 2 -- Chart
1961 9 25 18 19.3 132.6 998 0 2 -- Chart
1961 9 26 00 20.2 131.6 992 0 2 -- Chart
1961 9 26 06 20.6 131.0 992 0 9 -- Chart
1961 9 26 12 21.0 130.3 992 0 9 -- Chart
1961 9 26 18 21.3 129.4 990 0 9 -- Chart
1961 9 27 00 21.6 128.6 985 0 9 -- Chart
1961 9 27 06 21.7 127.7 980 0 9 -- Chart
1961 9 27 12 21.7 126.3 980 0 9 -- Chart
1961 9 27 18 21.6 124.2 980 0 9 -- Chart
1961 9 28 00 22.0 122.3 980 0 9 -- Chart
1961 9 28 06 22.4 120.5 980 0 9 -- Chart
1961 9 28 12 22.7 118.8 984 0 9 -- Chart
1961 9 28 18 22.6 117.3 984 0 9 -- Chart
1961 9 29 00 22.6 116.0 984 0 9 -- Chart
1961 9 29 06 22.8 113.5 990 0 9 -- Chart
1961 9 29 12 22.7 111.7 994 0 2 -- Chart
1961 9 29 18 21.6 111.1 1000 0 2 -- Chart
1961 9 30 00 21.3 111.5 1004 0 2 -- Chart
1961 9 30 06 20.9 111.5 1004 0 2 -- Chart
1961 9 30 12 20.9 111.9 1006 0 2 -- Chart
1961 9 30 18 20.0 111.0 1006 0 2 -- Chart
1961 10 1 00 20.0 112.0 1006 0 2 -- Chart
Japan Meteorological Agency Best Track Data | Correction Date : 1989-06-01
< Typhoon 196121 1961 Season Typhoon 196123 >

Help